Station TBIM4 - Thunder Bay Island, MI Image indicating link to RSS feed of recent meteorological observations for station TBIM4


Conditions at TBIM4 as of
(12:30 pm EDT)
1630 GMT on 05/25/2024:
     

Click on the graph icon in the table below to see a time series plot of the last five days of that observation.

5-day plot - Wind Direction Wind Direction (WDIR): SE ( 130 deg true )
5-day plot - Wind Speed Wind Speed (WSPD): 6 kts
5-day plot - Wind Gust Wind Gust (GST): 8 kts
5-day plot - Air Temperature Air Temperature (ATMP): 53.2 °F
5-day plot - Wind Chill Wind Chill (CHILL): 51.1 °F
5-day plot -  Wind Speed, Wind Gust and Atmospheric Pressure Combined plot of Wind Speed, Gust, and Air Pressure
Previous observations
TIME
(EDT)
5-day plot - Wind Direction
WDIR
 
5-day plot - Wind Speed
WSPD
kts
5-day plot - Wind Gust
GST
kts
5-day plot - Wave Height
WVHT
ft
5-day plot - Dominant Wave Period
DPD
sec
5-day plot - Average Wave Period
APD
sec
5-day plot - Mean Wave Direction
MWD
 
5-day plot - Atmospheric Pressure
PRES
in
5-day plot - Pressure Tendency
PTDY
in
5-day plot - Air Temperature
ATMP
°F
5-day plot - Water Temperature
WTMP
°F
5-day plot - Dew Point
DEWP
°F
5-day plot - Salinity
SAL
psu
5-day plot - Visibility
VIS
nmi
5-day plot - Tide (above MLLW)
TIDE
ft
2024-05-25 12:20 pm SE 5 6------ 52.9-----
2024-05-25 12:10 pmSSE 5 6------ 52.5-----
2024-05-25 11:30 amESE 6 8------ 52.3-----
2024-05-25 11:20 amESE 6 9------ 52.3-----
2024-05-25 11:10 amESE 6 8------ 52.3-----
2024-05-25 10:00 am S 9 10------ 52.0-----
2024-05-25 09:50 amSSE 9 10------ 51.1-----
2024-05-25 09:40 amSSE 11 12------ 51.3-----
2024-05-25 09:30 am SE 14 16------ 50.9-----
2024-05-25 09:20 am SE 13 15------ 50.7-----
2024-05-25 09:10 am SE 12 13------ 50.9-----
2024-05-25 09:00 am SE 13 15------ 50.5-----
2024-05-25 08:50 amESE 15 19------ 50.5-----
2024-05-25 08:40 am SE 15 17------ 50.4-----
2024-05-25 08:30 am SE 12 13------ 50.4-----
2024-05-25 08:20 amESE 11 14------ 49.8-----
2024-05-25 08:10 am SE 12 13------ 50.0-----
2024-05-25 08:00 am SE 11 12------ 50.2-----
2024-05-25 07:50 amESE 10 12------ 50.2-----
2024-05-25 07:40 amESE 7 8------ 50.0-----
2024-05-25 07:30 amESE 6 7------ 50.0-----
2024-05-25 07:20 amESE 7 7------ 50.2-----
2024-05-25 07:10 amESE 3 3------ 50.2-----
2024-05-25 07:00 am SE 3 4------ 50.2-----
2024-05-25 06:50 am S 3 4------ 50.2-----
2024-05-25 06:40 amSSE 4 5------ 50.2-----
2024-05-25 06:30 am S 5 6------ 50.2-----
2024-05-25 06:20 am S 7 9------ 50.0-----
2024-05-25 06:10 amSSE 8 10------ 50.2-----
2024-05-25 06:00 am SE 9 11------ 50.2-----
2024-05-25 05:50 amESE 11 15------ 50.2-----
2024-05-25 05:40 amESE 12 14------ 50.5-----
2024-05-25 05:30 am SE 13 15------ 50.4-----
2024-05-25 05:20 amESE 12 15------ 50.2-----
2024-05-25 05:10 amESE 12 15------ 50.0-----
2024-05-25 05:00 amESE 12 15------ 50.2-----
2024-05-25 04:50 amESE 11 14------ 50.4-----
2024-05-25 04:40 amESE 12 16------ 50.5-----
2024-05-25 04:30 amESE 14 18------ 50.5-----
2024-05-25 04:20 amESE 11 16------ 50.5-----
2024-05-25 04:10 amESE 12 17------ 50.4-----
2024-05-25 04:00 amESE 14 17------ 50.4-----
2024-05-25 03:50 amESE 13 16------ 50.2-----
2024-05-25 03:40 amESE 14 17------ 50.2-----
2024-05-25 03:30 amESE 14 17------ 50.4-----
2024-05-25 03:20 amESE 7 9------ 50.2-----
2024-05-25 03:10 amESE 9 12------ 50.2-----
2024-05-25 03:00 amESE 10 13------ 50.4-----
2024-05-25 02:50 amESE 11 13------ 50.7-----
2024-05-25 02:40 am SE 11 13------ 50.9-----
2024-05-25 02:30 am SE 10 12------ 50.9-----
2024-05-25 02:20 amESE 9 10------ 50.9-----
2024-05-25 02:10 amESE 9 12------ 51.3-----
2024-05-25 02:00 amESE 11 13------ 51.8-----
2024-05-25 01:50 am E 10 12------ 52.0-----
2024-05-25 01:40 am E 12 14------ 52.0-----
2024-05-25 01:30 am E 12 14------ 52.0-----
2024-05-25 01:20 am E 10 13------ 51.6-----
2024-05-25 01:10 am E 8 9------ 51.4-----
2024-05-25 01:00 am E 6 8------ 51.1-----
2024-05-25 12:50 amESE 7 9------ 50.9-----
2024-05-25 12:40 amESE 7 9------ 50.9-----
2024-05-25 12:30 amESE 6 8------ 50.5-----
2024-05-25 12:20 amESE 6 7------ 50.4-----
2024-05-25 12:10 amESE 6 7------ 50.4-----
2024-05-25 12:00 amESE 5 7------ 50.2-----
2024-05-24 11:50 pmESE 5 7------ 50.2-----
2024-05-24 11:40 pmESE 7 8------ 50.0-----
2024-05-24 11:30 pm E 6 8------ 50.0-----
2024-05-24 11:20 pmESE 5 7------ 50.0-----
2024-05-24 11:10 pm SE 5 6------ 49.8-----
2024-05-24 11:00 pm SE 6 7------ 49.8-----
2024-05-24 10:50 pm SE 6 7------ 50.0-----
2024-05-24 10:40 pmESE 6 7------ 49.8-----
2024-05-24 10:30 pmESE 5 9------ 49.8-----
2024-05-24 10:20 pmESE 6 8------ 50.0-----
2024-05-24 10:10 pmESE 5 8------ 50.2-----
2024-05-24 10:00 pmESE 8 10------ 50.7-----
2024-05-24 09:50 pmSSE 9 10------ 50.9-----
2024-05-24 09:40 pmSSE 8 8------ 50.9-----
2024-05-24 09:30 pmSSE 8 9------ 50.9-----
2024-05-24 09:20 pmSSE 8 10------ 50.9-----
2024-05-24 09:10 pmSSE 10 11------ 50.7-----
2024-05-24 09:00 pm S 9 11------ 50.5-----
2024-05-24 08:50 pmSSE 10 11------ 50.2-----
2024-05-24 08:40 pmSSE 9 10------ 50.2-----
2024-05-24 08:30 pmSSE 7 8------ 50.2-----
2024-05-24 08:20 pm SE 7 8------ 50.0-----
2024-05-24 08:10 pm SE 7 8------ 50.0-----
2024-05-24 07:30 pmESE 8 11------ 50.4-----
2024-05-24 07:20 pm E 9 11------ 50.7-----
2024-05-24 07:10 pm E 7 8------ 50.7-----
2024-05-24 07:00 pm E 7 8------ 50.5-----
2024-05-24 06:50 pmESE 8 9------ 50.5-----
2024-05-24 06:40 pm E 8 10------ 50.4-----
2024-05-24 06:30 pmESE 7 9------ 51.3-----
2024-05-24 06:20 pmESE 7 8------ 50.7-----
2024-05-24 06:10 pmESE 7 9------ 51.3-----
2024-05-24 06:00 pmESE 7 9------ 50.7-----
2024-05-24 05:50 pmESE 7 8------ 49.8-----
2024-05-24 05:40 pmESE 7 9------ 51.3-----
2024-05-24 05:30 pmESE 8 9------ 50.4-----
2024-05-24 05:20 pmESE 6 8------ 50.4-----
2024-05-24 05:10 pm SE 7 8------ 50.4-----
2024-05-24 05:00 pmESE 5 8------ 50.4-----
2024-05-24 04:50 pmESE 6 8------ 50.9-----
2024-05-24 04:40 pmESE 6 7------ 52.0-----
2024-05-24 04:30 pm SE 6 7------ 52.0-----
2024-05-24 04:20 pm SE 3 4------ 50.9-----
2024-05-24 04:10 pmESE 4 5------ 51.8-----
2024-05-24 04:00 pm SE 4 5------ 51.8-----
2024-05-24 03:50 pm SE 5 6------ 52.9-----
2024-05-24 03:40 pm SE 4 5------ 52.9-----
2024-05-24 03:30 pmSSE 4 5------ 52.9-----
2024-05-24 03:20 pm SE 4 5------ 52.7-----
2024-05-24 03:10 pm SE 4 5------ 53.2-----
2024-05-24 03:00 pmESE 3 4------ 53.1-----
2024-05-24 02:50 pmENE 4 6------ 54.1-----
2024-05-24 02:40 pm NE 9 11------ 52.5-----
2024-05-24 02:30 pm NE 10 12------ 52.0-----
2024-05-24 02:20 pm NE 9 12------ 52.3-----
2024-05-24 02:10 pm NE 9 11------ 52.2-----
2024-05-24 02:00 pmENE 6 8------ 53.6-----
2024-05-24 01:50 pm NE 8 10------ 52.3-----
2024-05-24 01:40 pm NE 10 12------ 52.0-----
2024-05-24 01:30 pm NE 10 11------ 51.6-----
2024-05-24 01:20 pm NE 7 9------ 53.1-----
2024-05-24 01:10 pmENE 6 8------ 54.0-----
2024-05-24 01:00 pm NE 6 7------ 52.7-----
2024-05-24 12:50 pmENE 4 6------ 53.1-----